Terminal Aerodrome Forecast
Issued by NWS Dallas/Fort Worth, TX

Home | Current Version | Previous Version | Text Only | Print | Product List | Glossary On
Versions: 1 2 3 4 5 6 7 8 9 10 11 12 13 14 15 16 17 18 19 20 21 22 23 24 25 26 27 28 29 30 31 32 33
094
FTUS44 KFWD 310251 AAA
TAFDFW
TAF AMD
KDFW 310251Z 3103/0106 16010KT P6SM SCT040 BKN250
     FM312000 16011KT P6SM VCTS BKN040CB
     FM010400 15010KT P6SM BKN100=

USA.gov is the U.S. government's official web portal to all federal, state and local government web resources and services.